Flight Track Log - Related Links

Times and Time Zones

All times are in EST time to prevent confusion due to time zone crossing. See the DAL581 flight status page for this flight to view local times or setup timezone preferences in your user account.

Time Position Orientation Groundspeed Altitude Reporting Facility
EST Latitude Longitude Course Direction KTS MPH feet Rate Location/Type
Sat 09:45:26 PM 47.4353 -122.3103 321° Northwest 157 181 1,200  Level Seattle Center
Sat 09:45:48 PM 47.4175 -122.3069 173° South 163 188 2,100 2,049 Climbing Seattle Center
Sat 09:46:48 PM 47.3617 -122.3097 182° South 207 238 4,000 2,281 Climbing Seattle Center
Sat 09:47:49 PM 47.3139 -122.3528 211° Southwest 230 265 6,700 1,475 Climbing Seattle Center
Sat 09:48:00 PM 47.3949 -122.6028 317° Northwest  Level FlightAware Approximate
Sat 09:48:50 PM 47.3094 -122.4467 266° West 229 264 7,000  Level Seattle Center
Sat 09:49:00 PM 47.4859 -122.7197 320° Northwest  Level FlightAware Approximate
Sat 09:49:50 PM 47.3483 -122.5356 303° West 257 296 7,500  Level Seattle Center
Sat 09:50:00 PM 47.5784 -122.8341 321° Northwest  Level FlightAware Approximate
Sat 09:50:51 PM 47.4081 -122.6097 320° Northwest 276 318 10,400  Level Seattle Center
Sat 09:51:51 PM 47.4781 -122.7003 319° Northwest 336 387 11,700 1,686 Climbing Seattle Center
Sat 09:52:52 PM 47.5583 -122.8044 319° Northwest 386 444 13,800 2,331 Climbing Seattle Center
Sat 09:53:52 PM 47.6508 -122.9075 323° Northwest 415 478 16,400 2,777 Climbing Seattle Center
Sat 09:54:53 PM 47.7506 -123.0083 326° Northwest 428 493 19,400 2,430 Climbing Seattle Center
Sat 09:55:53 PM 47.8503 -123.1175 324° Northwest 438 504 21,300 1,835 Climbing Seattle Center
Sat 09:56:54 PM 47.9542 -123.2300 324° Northwest 454 522 23,100 586 Climbing Seattle Center
Sat 10:02:37 PM 48.5750 -123.8983 324° Northwest 26,000 414 Climbing FlightAware ADS-B (FAKM / KIM)
Sat 10:03:54 PM 48.6667 -124.0333 324° Northwest 460 529 26,000  Level Vancouver Center
Sat 10:04:54 PM 48.7833 -124.1500 327° Northwest 470 541 26,000  Level Vancouver Center
Sat 10:05:54 PM 48.8833 -124.2500 327° Northwest 470 541 26,000  Level Vancouver Center
Sat 10:06:54 PM 48.9833 -124.3833 319° Northwest 470 541 26,000  Level Vancouver Center
Sat 10:07:54 PM 49.1000 -124.5167 323° Northwest 470 541 26,000  Level Vancouver Center
Sat 10:08:54 PM 49.2000 -124.6167 327° Northwest 470 541 26,000  Level Vancouver Center
Sat 10:09:54 PM 49.3167 -124.7500 323° Northwest 470 541 26,000  Level Vancouver Center
Sat 10:10:54 PM 49.4167 -124.8500 327° Northwest 470 541 26,000  Level Vancouver Center
Sat 10:11:54 PM 49.5333 -124.9833 323° Northwest 470 541 26,000  Level Vancouver Center
Sat 10:12:54 PM 49.6333 -125.1167 319° Northwest 470 541 26,000  Level Vancouver Center
Sat 10:13:54 PM 49.7333 -125.2167 327° Northwest 470 541 26,000  Level Vancouver Center
Sat 10:14:54 PM 49.8333 -125.3500 319° Northwest 470 541 26,000  Level Vancouver Center
Sat 10:15:54 PM 49.9500 -125.4667 327° Northwest 470 541 26,000 850 Level Vancouver Center
Sat 10:16:54 PM 50.0500 -125.6000 319° Northwest 470 541 27,700 1,550 Climbing Vancouver Center
Sat 10:17:54 PM 50.1500 -125.7333 320° Northwest 490 564 29,100 1,150 Climbing Vancouver Center
Sat 10:18:54 PM 50.2500 -125.8333 327° Northwest 490 564 30,000 450 Climbing Vancouver Center
Sat 10:19:54 PM 50.3500 -125.9667 320° Northwest 480 552 30,000  Level Vancouver Center
Sat 10:20:54 PM 50.4667 -126.1000 324° Northwest 480 552 30,000  Level Vancouver Center
Sat 10:21:54 PM 50.5833 -126.2500 321° Northwest 490 564 30,000  Level Vancouver Center
Sat 10:22:54 PM 50.7000 -126.3833 324° Northwest 490 564 30,000  Level Vancouver Center
Sat 10:23:54 PM 50.8000 -126.5000 324° Northwest 490 564 30,000  Level Vancouver Center
Sat 10:24:54 PM 50.9000 -126.6333 320° Northwest 490 564 30,000  Level Vancouver Center
Sat 10:25:54 PM 51.0000 -126.7667 320° Northwest 490 564 30,000  Level Vancouver Center
Sat 10:26:54 PM 51.1167 -126.9167 321° Northwest 480 552 30,000 800 Level Vancouver Center
Sat 10:27:54 PM 51.2167 -127.0167 328° Northwest 480 552 31,600 1,000 Climbing Vancouver Center
Sat 10:28:54 PM 51.3333 -127.1667 321° Northwest 480 552 32,000 200 Climbing Vancouver Center
Sat 10:29:54 PM 51.4167 -127.3000 315° West 490 564 32,000  Level Vancouver Center
Sat 10:30:54 PM 51.5333 -127.4500 321° Northwest 480 552 32,000  Level Vancouver Center
Sat 10:31:54 PM 51.6333 -127.5667 324° Northwest 480 552 32,000  Level Vancouver Center
Sat 10:32:54 PM 51.7500 -127.7167 322° Northwest 480 552 32,000  Level Vancouver Center
Sat 10:33:54 PM 51.8333 -127.8500 315° West 480 552 32,000  Level Vancouver Center
Sat 10:34:54 PM 51.9500 -127.9667 328° Northwest 480 552 32,000  Level Vancouver Center
Sat 10:35:54 PM 52.0667 -128.1167 322° Northwest 480 552 32,000  Level Vancouver Center
Sat 10:36:54 PM 52.1667 -128.2667 317° Northwest 490 564 32,000  Level Vancouver Center
Sat 10:37:54 PM 52.2667 -128.4167 317° Northwest 490 564 32,000  Level Vancouver Center
Sat 10:38:54 PM 52.3667 -128.5333 325° Northwest 490 564 32,000  Level Vancouver Center
Sat 10:39:54 PM 52.4833 -128.6833 322° Northwest 490 564 32,000  Level Vancouver Center
Sat 10:40:54 PM 52.5833 -128.8333 318° Northwest 490 564 32,000  Level Vancouver Center
Sat 10:41:54 PM 52.6833 -128.9833 318° Northwest 490 564 32,000  Level Vancouver Center
Sat 10:42:54 PM 52.8000 -129.1000 329° Northwest 500 575 32,000  Level Vancouver Center
Sat 10:43:54 PM 52.9000 -129.2500 318° Northwest 500 575 32,000  Level Vancouver Center
Sat 10:44:54 PM 53.0000 -129.4000 318° Northwest 500 575 32,000  Level Vancouver Center
Sat 10:45:54 PM 53.1167 -129.5500 322° Northwest 500 575 32,000  Level Vancouver Center
Sat 10:46:54 PM 53.2167 -129.7167 315° West 500 575 32,000  Level Vancouver Center
Sat 10:47:54 PM 53.3333 -129.8667 323° Northwest 500 575 32,000  Level Vancouver Center
Sat 10:48:54 PM 53.4167 -130.0167 313° West 500 575 32,000  Level Vancouver Center
Sat 10:49:54 PM 53.5333 -130.1833 320° Northwest 500 575 32,000  Level Vancouver Center
Sat 10:50:54 PM 53.6333 -130.3333 318° Northwest 500 575 32,000  Level Vancouver Center
Sat 10:51:54 PM 53.7500 -130.4833 323° Northwest 500 575 32,000  Level Vancouver Center
Sat 10:52:54 PM 53.8333 -130.6167 317° Northwest 500 575 32,000  Level Vancouver Center
Sat 10:53:54 PM 53.9500 -130.7833 320° Northwest 490 564 32,000  Level Vancouver Center
Sat 10:54:54 PM 54.0500 -130.9333 319° Northwest 490 564 32,000  Level Vancouver Center
Sat 10:55:54 PM 54.1667 -131.1000 320° Northwest 490 564 32,000  Level Vancouver Center
Sat 10:56:54 PM 54.2500 -131.2667 311° West 490 564 32,000  Level Vancouver Center
Sat 10:57:54 PM 54.3667 -131.4167 323° Northwest 490 564 32,000  Level Vancouver Center
Sat 10:58:54 PM 54.4500 -131.5500 317° Northwest 490 564 32,000  Level Vancouver Center
Sat 10:59:54 PM 54.5667 -131.7167 320° Northwest 490 564 32,000  Level Vancouver Center
Sat 11:00:50 PM 54.6500 -131.8167 325° Northwest 490 564 32,000  Level Anchorage Center
Sat 11:01:51 PM 54.7500 -131.9833 316° Northwest 490 564 32,000  Level Anchorage Center
Sat 11:02:51 PM 54.8500 -132.1333 319° Northwest 490 564 32,000  Level Anchorage Center
Sat 11:03:51 PM 54.9500 -132.3000 316° Northwest 490 564 32,000  Level Anchorage Center
Sat 11:04:52 PM 55.0500 -132.4500 319° Northwest 490 564 32,000  Level Anchorage Center
Sat 11:05:52 PM 55.1500 -132.6167 316° Northwest 490 564 32,000  Level Anchorage Center
Sat 11:06:52 PM 55.2500 -132.7833 317° Northwest 490 564 32,000  Level Anchorage Center
Sat 11:07:53 PM 55.3333 -132.9167 318° Northwest 480 552 32,000  Level Anchorage Center
Sat 11:08:53 PM 55.4333 -133.0833 317° Northwest 490 564 32,000 -350 Level Anchorage Center
Sat 11:09:53 PM 55.5333 -133.2333 320° Northwest 490 564 31,300 -992 Descending Anchorage Center
Sat 11:10:54 PM 55.6333 -133.4000 317° Northwest 490 564 30,000 -1,140 Descending Anchorage Center
Sat 11:11:54 PM 55.7500 -133.6500 310° West 490 564 29,000 -950 Descending Vancouver Center
Sat 11:12:54 PM 55.8500 -133.8333 314° West 480 552 28,100 -500 Descending Vancouver Center
Sat 11:13:54 PM 55.9333 -133.9667 318° Northwest 480 552 28,000 -50 Descending Vancouver Center
Sat 11:14:55 PM 56.0167 -134.0667 326° Northwest 480 552 28,000  Level Anchorage Center
Sat 11:15:55 PM 56.1167 -134.2333 317° Northwest 490 564 28,000  Level Anchorage Center
Sat 11:16:56 PM 56.2333 -134.4333 316° Northwest 480 552 28,000  Level Anchorage Center
Sat 11:17:54 PM 56.3167 -134.6500 305° West 490 564 28,000  Level Vancouver Center
Sat 11:18:54 PM 56.4167 -134.7833 324° Northwest 490 564 28,000  Level Vancouver Center
Sat 11:19:54 PM 56.5167 -134.9667 315° West 490 564 28,000  Level Vancouver Center
Sat 11:20:54 PM 56.6000 -135.1500 310° West 490 564 28,000  Level Vancouver Center
Sat 11:21:54 PM 56.7000 -135.3333 315° West 500 575 28,000  Level Vancouver Center
Sat 11:22:54 PM 56.8000 -135.5167 315° West 500 575 28,000  Level Vancouver Center
Sat 11:23:58 PM 56.9167 -135.6500 328° Northwest 490 564 28,000  Level Anchorage Center
Sat 11:24:58 PM 57.0000 -135.8333 310° West 490 564 28,000  Level Anchorage Center
Sat 11:25:59 PM 57.1000 -136.0167 315° West 500 575 28,000  Level Anchorage Center
Sat 11:26:59 PM 57.1833 -136.2000 310° West 490 564 28,000  Level Anchorage Center
Sat 11:27:59 PM 57.2833 -136.3833 315° West 500 575 28,000  Level Anchorage Center
Sat 11:29:00 PM 57.3833 -136.5667 315° West 500 575 28,000  Level Anchorage Center
Sat 11:30:00 PM 57.4833 -136.7500 315° West 500 575 28,000  Level Anchorage Center
Sat 11:31:36 PM 57.6333 -137.1333 306° West 510 587 28,000  Level Vancouver Center
Sat 11:32:36 PM 57.7167 -137.3167 310° West 510 587 28,000  Level Vancouver Center
Sat 11:33:36 PM 57.8167 -137.5500 309° West 510 587 28,000  Level Vancouver Center
Sat 11:34:36 PM 57.9167 -137.7333 316° Northwest 510 587 28,000  Level Vancouver Center
Sat 11:36:02 PM 58.0500 -137.9333 322° Northwest 500 575 28,000  Level Anchorage Center
Sat 11:37:03 PM 58.1500 -138.1333 314° West 510 587 28,000  Level Anchorage Center
Sat 11:38:03 PM 58.2500 -138.3333 314° West 510 587 28,000  Level Anchorage Center
Sat 11:39:03 PM 58.3333 -138.5333 308° West 510 587 28,000  Level Anchorage Center
Sat 11:40:04 PM 58.4333 -138.7500 311° West 510 587 28,000  Level Anchorage Center
Sat 11:41:04 PM 58.5333 -138.9500 314° West 510 587 28,000  Level Anchorage Center
Sat 11:42:05 PM 58.6167 -139.1500 309° West 510 587 28,000  Level Anchorage Center
Sat 11:43:05 PM 58.7167 -139.3667 312° West 510 587 28,000  Level Anchorage Center
Sat 11:44:05 PM 58.8167 -139.5833 312° West 520 598 28,000  Level Anchorage Center
Sat 11:45:06 PM 58.9000 -139.7833 309° West 520 598 28,000  Level Anchorage Center
Sat 11:46:05 PM 59.0000 -140.0167 310° West 510 587 28,000  Level Anchorage Center
Sat 11:47:06 PM 59.0500 -140.2500 293° West 480 552 28,000  Level Anchorage Center
Sat 11:48:06 PM 59.1000 -140.5000 291° West 500 575 28,000  Level Anchorage Center
Sat 11:49:07 PM 59.1500 -140.7500 291° West 500 575 28,000  Level Anchorage Center
Sat 11:50:07 PM 59.2167 -141.0167 296° West 500 575 28,000  Level Anchorage Center
Sat 11:51:07 PM 59.2667 -141.2667 291° West 500 575 28,000  Level Anchorage Center
Sat 11:52:08 PM 59.3167 -141.5167 291° West 490 564 28,000  Level Anchorage Center
Sat 11:53:08 PM 59.3667 -141.7667 292° West 490 564 28,000  Level Anchorage Center
Sat 11:54:08 PM 59.4167 -142.0167 292° West 490 564 28,000  Level Anchorage Center
Sat 11:55:09 PM 59.4667 -142.2500 293° West 480 552 28,000  Level Anchorage Center
Sat 11:56:09 PM 59.5167 -142.5000 292° West 470 541 28,000  Level Anchorage Center
Sat 11:57:09 PM 59.5667 -142.7500 292° West 480 552 28,000  Level Anchorage Center
Sat 11:58:10 PM 59.6000 -143.0000 285° West 470 541 28,000  Level Anchorage Center
Sat 11:59:10 PM 59.6500 -143.2500 292° West 480 552 28,000  Level Anchorage Center
Sun 12:00:10 AM 59.7000 -143.4833 293° West 470 541 28,000  Level Anchorage Center
Sun 12:01:11 AM 59.7333 -143.7333 285° West 470 541 28,000  Level Anchorage Center
Sun 12:02:11 AM 59.7833 -143.9833 292° West 470 541 28,000  Level Anchorage Center
Sun 12:03:11 AM 59.8333 -144.2167 293° West 470 541 28,000  Level Anchorage Center
Sun 12:04:12 AM 59.8667 -144.4667 285° West 470 541 28,000  Level Anchorage Center
Sun 12:05:12 AM 59.9167 -144.7167 292° West 470 541 28,000  Level Anchorage Center
Sun 12:06:13 AM 59.9667 -144.9667 292° West 470 541 28,000  Level Anchorage Center
Sun 12:07:13 AM 60.0000 -145.2167 285° West 470 541 28,000  Level Anchorage Center
Sun 12:08:13 AM 60.0500 -145.4667 292° West 460 529 28,000  Level Anchorage Center
Sun 12:09:14 AM 60.0833 -145.7000 286° West 460 529 28,000  Level Anchorage Center
Sun 12:10:14 AM 60.1167 -145.9500 285° West 470 541 28,000  Level Anchorage Center
Sun 12:11:14 AM 60.1667 -146.2000 292° West 460 529 28,000  Level Anchorage Center
Sun 12:12:15 AM 60.2000 -146.4500 285° West 460 529 28,000  Level Anchorage Center
Sun 12:13:15 AM 60.2333 -146.7000 285° West 450 518 28,000  Level Anchorage Center
Sun 12:14:15 AM 60.2833 -146.9333 293° West 460 529 28,000  Level Anchorage Center
Sun 12:15:16 AM 60.3167 -147.1833 285° West 460 529 28,000 50 Level Anchorage Center
Sun 12:16:16 AM 60.3500 -147.4333 285° West 460 529 28,100 950 Climbing Anchorage Center
Sun 12:17:16 AM 60.3833 -147.6833 285° West 460 529 29,900 1,884 Climbing Anchorage Center
Sun 12:18:17 AM 60.4167 -147.9333 285° West 460 529 31,900 1,736 Climbing Anchorage Center
Sun 12:19:17 AM 60.4667 -148.1833 292° West 460 529 33,400 1,041 Climbing Anchorage Center
Sun 12:20:18 AM 60.5000 -148.4333 285° West 460 529 34,000 298 Climbing Anchorage Center
Sun 12:21:18 AM 60.5333 -148.6833 285° West 460 529 34,000  Level Anchorage Center
Sun 12:22:18 AM 60.5667 -148.9333 285° West 450 518 34,000  Level Anchorage Center
Sun 12:23:19 AM 60.6000 -149.2167 284° West 450 518 34,000  Level Anchorage Center
Sun 12:24:19 AM 60.6333 -149.4667 285° West 440 506 34,000  Level Anchorage Center
Sun 12:25:19 AM 60.6667 -149.7167 285° West 450 518 34,000  Level Anchorage Center
Sun 12:26:20 AM 60.7000 -149.9667 285° West 460 529 34,000  Level Anchorage Center
Sun 12:27:20 AM 60.7333 -150.2333 284° West 460 529 34,000  Level Anchorage Center
Sun 12:28:20 AM 60.7667 -150.4833 285° West 470 541 34,000  Level Anchorage Center
Sun 12:29:21 AM 60.8000 -150.7500 284° West 470 541 34,000  Level Anchorage Center
Sun 12:30:21 AM 60.8167 -151.0000 278° West 470 541 34,000  Level Anchorage Center
Sun 12:31:21 AM 60.8500 -151.2500 285° West 460 529 34,000  Level Anchorage Center
Sun 12:32:22 AM 60.8667 -151.5167 277° West 460 529 34,000  Level Anchorage Center
Sun 12:33:22 AM 60.8833 -151.7833 277° West 460 529 34,000  Level Anchorage Center
Sun 12:34:23 AM 60.9000 -152.0333 278° West 450 518 34,000  Level Anchorage Center
Sun 12:35:23 AM 60.9000 -152.3000 270° West 460 529 34,000  Level Anchorage Center
Sun 12:36:23 AM 60.9167 -152.5500 278° West 450 518 34,000  Level Anchorage Center
Sun 12:37:24 AM 60.9333 -152.8000 278° West 450 518 34,000  Level Anchorage Center
Sun 12:38:24 AM 60.9333 -153.1167 270° West 450 518 34,000  Level Anchorage Center
Sun 12:39:24 AM 60.9500 -153.3667 278° West 450 518 34,000  Level Anchorage Center
Sun 12:40:25 AM 60.9500 -153.6167 270° West 460 529 34,000  Level Anchorage Center
Sun 12:41:25 AM 60.9667 -153.8833 277° West 460 529 34,000  Level Anchorage Center
Sun 12:42:25 AM 60.9667 -154.1500 270° West 450 518 34,000  Level Anchorage Center
Sun 12:43:26 AM 60.9667 -154.4000 270° West 450 518 34,000  Level Anchorage Center
Sun 12:44:26 AM 60.9833 -154.6667 277° West 460 529 34,000  Level Anchorage Center
Sun 12:46:27 AM 60.9833 -155.2000 270° West 460 529 34,000  Level Anchorage Center
Sun 12:47:27 AM 61.0000 -155.4667 277° West 460 529 34,000  Level Anchorage Center
Sun 12:48:28 AM 61.0000 -155.7333 270° West 440 506 34,000  Level Anchorage Center
Sun 12:49:28 AM 61.0000 -156.0000 270° West 460 529 34,000  Level Anchorage Center
Sun 12:50:28 AM 61.0000 -156.2167 270° West 460 529 34,000  Level Anchorage Center
Sun 12:51:29 AM 61.0167 -156.5333 276° West 460 529 34,000  Level Anchorage Center
Sun 12:52:29 AM 61.0167 -156.8000 270° West 450 518 34,000  Level Anchorage Center
Sun 12:53:29 AM 61.0167 -157.0667 270° West 460 529 34,000  Level Anchorage Center
Sun 12:54:30 AM 61.0167 -157.3333 270° West 460 529 34,000  Level Anchorage Center
Sun 12:55:30 AM 61.0167 -157.6000 270° West 460 529 34,000  Level Anchorage Center
Sun 12:56:30 AM 61.0167 -157.8667 270° West 460 529 34,000  Level Anchorage Center
Sun 12:57:30 AM 61.0167 -158.1333 270° West 450 518 34,000  Level Anchorage Center
Sun 12:58:31 AM 61.0167 -158.3833 270° West 450 518 34,000  Level Anchorage Center
Sun 12:59:31 AM 61.0167 -158.6500 270° West 450 518 34,000  Level Anchorage Center
Sun 01:00:31 AM 61.0000 -158.9000 262° West 450 518 34,000  Level Anchorage Center
Sun 01:01:32 AM 61.0000 -159.1667 270° West 460 529 34,000  Level Anchorage Center
Sun 01:02:32 AM 61.0000 -159.4333 270° West 450 518 34,000  Level Anchorage Center
Sun 01:03:32 AM 61.0000 -159.7000 270° West 450 518 34,000  Level Anchorage Center
Sun 01:04:33 AM 61.0000 -159.9500 270° West 460 529 34,000  Level Anchorage Center
Sun 01:05:33 AM 60.9833 -160.2167 263° West 450 518 34,000  Level Anchorage Center
Sun 01:06:33 AM 60.9833 -160.4833 270° West 450 518 34,000  Level Anchorage Center
Sun 01:07:34 AM 60.9833 -160.7333 270° West 440 506 34,000  Level Anchorage Center
Sun 01:08:34 AM 60.9667 -161.0000 263° West 450 518 34,000  Level Anchorage Center
Sun 01:09:35 AM 60.9667 -161.2500 270° West 460 529 34,000  Level Anchorage Center
Sun 01:10:35 AM 60.9500 -161.5167 263° West 450 518 34,000  Level Anchorage Center
Sun 01:11:35 AM 60.9500 -161.7833 270° West 460 529 34,000  Level Anchorage Center
Sun 01:12:36 AM 60.9333 -162.0500 263° West 460 529 34,000  Level Anchorage Center
Sun 01:13:36 AM 60.9333 -162.3167 270° West 460 529 34,000  Level Anchorage Center
Sun 01:14:36 AM 60.9167 -162.5833 263° West 460 529 34,000  Level Anchorage Center
Sun 01:15:37 AM 60.9167 -162.8500 270° West 460 529 34,000  Level Anchorage Center
Sun 01:16:37 AM 60.9000 -163.1000 262° West 450 518 34,000  Level Anchorage Center
Sun 01:17:37 AM 60.9000 -163.3667 270° West 450 518 34,000  Level Anchorage Center
Sun 01:18:38 AM 60.8833 -163.6333 263° West 460 529 34,000  Level Anchorage Center
Sun 01:19:38 AM 60.8667 -163.9000 263° West 450 518 34,000  Level Anchorage Center
Sun 01:20:38 AM 60.8500 -164.1667 263° West 460 529 34,000  Level Anchorage Center
Sun 01:21:39 AM 60.8500 -164.4167 270° West 460 529 34,000  Level Anchorage Center
Sun 01:22:39 AM 60.8333 -164.6833 263° West 450 518 34,000  Level Anchorage Center
Sun 01:23:40 AM 60.8167 -164.9333 262° West 450 518 34,000  Level Anchorage Center
Sun 01:24:40 AM 60.7833 -165.2000 256° West 450 518 34,000  Level Anchorage Center
Sun 01:25:40 AM 60.7500 -165.4500 255° West 460 529 34,000  Level Anchorage Center
Sun 01:26:41 AM 60.7000 -165.7000 248° West 460 529 34,000  Level Anchorage Center
Sun 01:27:41 AM 60.6667 -165.9333 254° West 460 529 34,000  Level Anchorage Center
Sun 01:28:41 AM 60.6167 -166.1833 248° West 460 529 34,000  Level Anchorage Center
Sun 01:29:42 AM 60.5833 -166.4333 255° West 460 529 34,000  Level Anchorage Center
Sun 01:30:42 AM 60.5333 -166.6833 248° West 460 529 34,000  Level Anchorage Center
Sun 01:31:42 AM 60.5000 -166.9333 255° West 460 529 34,000  Level Anchorage Center
Sun 01:32:59 AM 60.4333 -167.2833 249° West 460 529 34,000  Level Anchorage Center
Sun 01:33:59 AM 60.3833 -167.5333 248° West 470 541 34,000  Level Anchorage Center
Sun 01:34:59 AM 60.3500 -167.7833 255° West 470 541 34,000  Level Anchorage Center
Sun 01:35:59 AM 60.3000 -168.0167 247° West 460 529 34,000  Level Anchorage Center
Sun 01:36:59 AM 60.2500 -168.2667 248° West 460 529 34,000  Level Anchorage Center
Sun 01:37:59 AM 60.2167 -168.5167 255° West 460 529 34,000  Level Anchorage Center
Sun 01:39:00 AM 60.1667 -168.7500 247° West 460 529 34,000  Level Anchorage Center
Sun 01:40:00 AM 60.1167 -169.0000 248° West 450 518 34,000  Level Anchorage Center
Sun 01:40:59 AM 60.0667 -169.2333 247° West 460 529 34,000  Level Anchorage Center
Sun 01:42:00 AM 60.0333 -169.4833 255° West 460 529 34,000  Level Anchorage Center
Sun 01:43:00 AM 59.9833 -169.7167 247° West 450 518 34,000  Level Anchorage Center
Sun 01:44:00 AM 59.9333 -169.9500 247° West 450 518 34,000  Level Anchorage Center
Sun 01:45:00 AM 59.8833 -170.1833 247° West 450 518 34,000  Level Anchorage Center
Sun 01:46:00 AM 59.8500 -170.4000 253° West 450 518 34,000  Level Anchorage Center
Sun 01:47:00 AM 59.8000 -170.6333 247° West 450 518 34,000  Level Anchorage Center
Sun 01:48:00 AM 59.7500 -170.8667 247° West 450 518 34,000  Level Anchorage Center
Sun 01:49:00 AM 59.7000 -171.1000 247° West 460 529 34,000  Level Anchorage Center
Sun 01:50:00 AM 59.6500 -171.3500 248° West 470 541 34,000  Level Anchorage Center
Sun 01:51:00 AM 59.6000 -171.5667 246° West 450 518 34,000  Level Anchorage Center
Sun 01:52:00 AM 59.5500 -171.8000 247° West 450 518 34,000  Level Anchorage Center
Sun 01:53:00 AM 59.5000 -172.0333 247° West 450 518 34,000  Level Anchorage Center
Sun 01:54:01 AM 59.4500 -172.2667 247° West 460 529 34,000  Level Anchorage Center
Sun 01:55:00 AM 59.4000 -172.5000 247° West 460 529 34,000  Level Anchorage Center
Sun 01:56:01 AM 59.3667 -172.7167 253° West 440 506 34,000  Level Anchorage Center
Sun 01:57:00 AM 59.3167 -172.9500 247° West 450 518 34,000  Level Anchorage Center
Sun 01:58:01 AM 59.2667 -173.1833 247° West 460 529 34,000  Level Anchorage Center
Sun 01:59:01 AM 59.2167 -173.4167 247° West 450 518 34,000  Level Anchorage Center
Sun 02:00:01 AM 59.1667 -173.6333 246° West 450 518 34,000  Level Anchorage Center
Sun 02:01:01 AM 59.1167 -173.8667 247° West 450 518 34,000  Level Anchorage Center
Sun 02:02:01 AM 59.0667 -174.0833 246° West 450 518 34,000  Level Anchorage Center
Sun 02:03:01 AM 59.0167 -174.3167 247° West 450 518 34,000  Level Anchorage Center
Sun 02:04:01 AM 58.9667 -174.5333 246° West 450 518 34,000  Level Anchorage Center
Sun 02:05:01 AM 58.9167 -174.7667 248° West 450 518 34,000  Level Anchorage Center
Sun 02:06:01 AM 58.8667 -174.9833 246° West 440 506 34,000  Level Anchorage Center
Sun 02:07:01 AM 58.8167 -175.2000 246° West 450 518 34,000  Level Anchorage Center
Sun 02:08:02 AM 58.7667 -175.4333 248° West 450 518 34,000  Level Anchorage Center
Sun 02:09:01 AM 58.7167 -175.6500 246° West 440 506 34,000  Level Anchorage Center
Sun 02:10:11 AM 58.6833 -175.8833 246° West 448 516 34,000  Level Anchorage Center
Sun 02:12:52 AM 58.5167 -176.4833 244° Southwest 450 518 34,000  Level Anchorage Center
Sun 02:13:52 AM 58.4667 -176.7000 246° West 430 495 34,000  Level Anchorage Center
Sun 02:15:47 AM 58.3833 -177.1000 245° Southwest 453 521 34,000 117 Level Anchorage Center
Sun 02:19:51 AM 58.1667 -177.9667 244° Southwest 452 520 34,700 145 Climbing Anchorage Center
Sun 02:29:32 AM 57.6167 -180.0000 242° Southwest 458 527 36,000 68 Climbing Anchorage Center
Sun 02:38:59 AM 57.0500 178.0333 240° Southwest 457 526 36,000  Level Anchorage Center
Sun 02:42:18 AM 56.8333 177.3500 240° Southwest 454 522 36,000  Level Anchorage Center
Sun 02:48:34 AM 56.4333 176.1167 239° Southwest 451 519 36,000  Level Anchorage Center
Sun 02:50:39 AM 56.2667 175.7000 238° Southwest 430 495 36,000  Level Anchorage Center
Sun 02:55:20 AM 55.9667 174.8000 243° Southwest 430 495 36,000  Level Anchorage Center
Sun 02:56:20 AM 55.9167 174.6333 242° Southwest 440 506 36,000  Level Anchorage Center
Sun 02:57:20 AM 55.8500 174.4333 239° Southwest 450 518 36,000  Level Anchorage Center
Sun 02:58:20 AM 55.7667 174.2333 234° Southwest 440 506 36,000  Level Anchorage Center
Sun 02:59:00 AM 55.8264 174.0778 245° Southwest  Level Estimated
Sun 02:59:20 AM 55.7167 174.0667 242° Southwest 440 506 36,000  Level Anchorage Center
Sun 03:00:00 AM 55.7722 173.8860 243° Southwest  Level Estimated
Sun 03:00:20 AM 55.6333 173.8667 234° Southwest 440 506 36,000  Level Anchorage Center
Sun 03:01:20 AM 55.5833 173.7167 240° Southwest 440 506 36,000  Level Anchorage Center
Sun 03:02:20 AM 55.5000 173.5167 234° Southwest 450 518 36,000  Level Anchorage Center
Sun 03:03:20 AM 55.4500 173.3500 242° Southwest 440 506 36,000  Level Anchorage Center
Sun 03:04:20 AM 55.3667 173.1500 234° Southwest 450 518 36,000  Level Anchorage Center
Sun 03:05:21 AM 55.3000 172.9500 240° Southwest 440 506 36,000  Level Anchorage Center
Sun 03:06:21 AM 55.2333 172.8000 232° Southwest 450 518 36,000  Level Anchorage Center
Sun 03:07:21 AM 55.1667 172.5833 242° Southwest 460 529 36,000  Level Anchorage Center
Sun 03:08:21 AM 55.1000 172.4333 232° Southwest 450 518 36,000  Level Anchorage Center
Sun 03:09:21 AM 55.0167 172.2333 234° Southwest 460 529 36,000  Level Anchorage Center
Sun 03:10:21 AM 54.9667 172.0833 240° Southwest 440 506 36,000  Level Anchorage Center
Sun 03:11:21 AM 54.8833 171.9000 232° Southwest 440 506 36,000  Level Anchorage Center
Sun 03:12:21 AM 54.8167 171.7333 235° Southwest 450 518 36,000  Level Anchorage Center
Sun 03:13:21 AM 54.7500 171.5333 240° Southwest 450 518 36,000  Level Anchorage Center
Sun 03:14:21 AM 54.6667 171.3500 232° Southwest 450 518 36,000  Level Anchorage Center
Sun 03:15:21 AM 54.6000 171.2000 233° Southwest 440 506 36,000  Level Anchorage Center
Sun 03:16:21 AM 54.5167 171.0167 232° Southwest 440 506 36,000  Level Anchorage Center
Sun 03:17:21 AM 54.4667 170.8667 240° Southwest 440 506 36,000  Level Anchorage Center
Sun 03:18:21 AM 54.3833 170.6833 232° Southwest 440 506 36,000  Level Anchorage Center
Sun 03:19:22 AM 54.3167 170.5333 233° Southwest 450 518 36,000  Level Anchorage Center
Sun 03:20:21 AM 54.2333 170.3500 232° Southwest 440 506 36,000  Level Anchorage Center
Sun 03:21:21 AM 54.1500 170.1667 232° Southwest 440 506 36,000  Level Anchorage Center
Sun 03:22:21 AM 54.0833 170.0167 233° Southwest 460 529 36,000  Level Anchorage Center
Sun 03:23:22 AM 54.0167 169.8333 238° Southwest 440 506 36,000  Level Anchorage Center
Sun 03:24:22 AM 53.9500 169.7000 230° Southwest 440 506 36,000  Level Anchorage Center
Sun 03:25:22 AM 53.8667 169.5167 232° Southwest 440 506 36,000 350 Level Anchorage Center
Sun 03:26:22 AM 53.8000 169.3667 233° Southwest 440 506 36,700 1,000 Climbing Anchorage Center
Sun 03:27:22 AM 53.7333 169.2000 236° Southwest 440 506 38,000 650 Climbing Anchorage Center
Sun 03:28:22 AM 53.6667 169.0500 233° Southwest 430 495 38,000  Level Anchorage Center
Sun 03:30:22 AM 53.5500 168.6667 243° Southwest 430 495 38,000  Level Anchorage Center
Sun 03:33:04 AM 53.4167 168.2333 239° Southwest 415 478 38,000  Level Anchorage Center
Sun 03:36:36 AM 53.1833 167.6000 239° Southwest 414 476 38,000  Level Anchorage Center
Sun 03:46:11 AM 52.6000 166.0167 238° Southwest 406 467 38,000  Level Anchorage Center
Sun 03:55:47 AM 52.0167 164.5000 235° Southwest 422 486 38,000  Level Anchorage Center
Sun 04:01:11 AM 51.6500 163.6500 236° Southwest 412 474 38,000 -260 Level Anchorage Center
Sun 04:05:23 AM 51.4000 163.0333 236° Southwest 382 440 35,500 -365 Descending Anchorage Center
Sun 04:14:53 AM 50.8167 161.7000 235° Southwest 383 441 33,000 -131 Descending Anchorage Center
Sun 04:24:27 AM 50.2000 160.3833 234° Southwest 367 422 33,000  Level Anchorage Center
Sun 04:24:35 AM 50.2000 160.3833 234° Southwest 385 443 33,000  Level Anchorage Center
Sun 04:25:00 AM 50.1753 160.3045 234° Southwest 383 441 33,000  Level FlightAware Transoceanic
Sun 04:26:00 AM 50.1103 160.1670 234° Southwest 383 441 33,000  Level FlightAware Transoceanic
Sun 04:27:00 AM 50.0451 160.0299 233° Southwest 383 441 33,000  Level FlightAware Transoceanic
Sun 04:28:00 AM 49.9797 159.8932 233° Southwest 383 441 33,000  Level FlightAware Transoceanic
Sun 04:29:00 AM 49.9142 159.7569 233° Southwest 383 441 33,000  Level FlightAware Transoceanic
Sun 04:30:00 AM 49.8384 159.6064 234° Southwest 385 443 33,000  Level FlightAware Transoceanic
Sun 04:31:00 AM 49.7776 159.4780 234° Southwest 385 443 33,000  Level FlightAware Transoceanic
Sun 04:32:00 AM 49.7167 159.3500 233° Southwest 385 443 33,000  Level FlightAware Transoceanic
Sun 04:33:00 AM 49.6502 159.2143 233° Southwest 385 443 33,000  Level FlightAware Transoceanic
Sun 04:34:00 AM 49.5837 159.0791 233° Southwest 385 443 33,000  Level FlightAware Transoceanic
Sun 04:35:00 AM 49.5169 158.9441 233° Southwest 385 443 33,000  Level FlightAware Transoceanic
Sun 04:36:00 AM 49.4500 158.8096 233° Southwest 385 443 33,000  Level FlightAware Transoceanic
Sun 04:37:00 AM 49.3830 158.6754 232° Southwest 385 443 33,000  Level FlightAware Transoceanic
Sun 04:38:00 AM 49.3158 158.5416 232° Southwest 385 443 33,000  Level FlightAware Transoceanic
Sun 04:39:00 AM 49.2484 158.4082 232° Southwest 385 443 33,000  Level FlightAware Transoceanic
Sun 04:40:00 AM 49.1809 158.2751 232° Southwest 385 443 33,000  Level FlightAware Transoceanic
Sun 04:41:00 AM 49.1132 158.1423 232° Southwest 385 443 33,000  Level FlightAware Transoceanic
Sun 04:42:00 AM 49.0454 158.0100 232° Southwest 385 443 33,000  Level FlightAware Transoceanic
Sun 04:43:00 AM 48.9774 157.8780 232° Southwest 385 443 33,000  Level FlightAware Transoceanic
Sun 04:44:00 AM 48.9093 157.7463 232° Southwest 385 443 33,000  Level FlightAware Transoceanic
Sun 04:45:00 AM 48.8410 157.6151 232° Southwest 385 443 33,000  Level FlightAware Transoceanic
Sun 04:46:00 AM 48.7726 157.4841 232° Southwest 385 443 33,000  Level FlightAware Transoceanic
Sun 04:47:00 AM 48.7040 157.3536 231° Southwest 385 443 33,000  Level FlightAware Transoceanic
Sun 04:48:00 AM 48.6353 157.2233 231° Southwest 385 443 33,000  Level FlightAware Transoceanic
Sun 04:49:00 AM 48.5664 157.0935 231° Southwest 385 443 33,000  Level FlightAware Transoceanic
Sun 04:50:00 AM 48.4975 156.9640 231° Southwest 385 443 33,000  Level FlightAware Transoceanic
Sun 04:51:00 AM 48.4283 156.8348 231° Southwest 385 443 33,000  Level FlightAware Transoceanic
Sun 04:52:00 AM 48.3590 156.7060 231° Southwest 385 443 33,000  Level FlightAware Transoceanic
Sun 04:53:00 AM 48.2896 156.5776 231° Southwest 385 443 33,000  Level FlightAware Transoceanic
Sun 04:54:00 AM 48.2200 156.4495 231° Southwest 385 443 33,000  Level FlightAware Transoceanic
Sun 04:55:00 AM 48.1502 156.3217 231° Southwest 385 443 33,000  Level FlightAware Transoceanic
Sun 04:56:00 AM 48.0804 156.1943 231° Southwest 385 443 33,000  Level FlightAware Transoceanic
Sun 04:57:00 AM 48.0104 156.0673 230° Southwest 385 443 33,000  Level FlightAware Transoceanic
Sun 04:58:00 AM 47.9402 155.9406 230° Southwest 385 443 33,000  Level FlightAware Transoceanic
Sun 04:59:00 AM 47.8700 155.8142 230° Southwest 385 443 33,000  Level FlightAware Transoceanic
Sun 05:00:00 AM 47.7995 155.6882 230° Southwest 385 443 33,000  Level FlightAware Transoceanic
Sun 05:01:00 AM 47.7290 155.5625 230° Southwest 385 443 33,000  Level FlightAware Transoceanic
Sun 05:02:00 AM 47.6583 155.4371 230° Southwest 385 443 33,000  Level FlightAware Transoceanic
Sun 05:03:00 AM 47.5874 155.3121 230° Southwest 385 443 33,000  Level FlightAware Transoceanic
Sun 05:04:00 AM 47.5165 155.1875 230° Southwest 385 443 33,000  Level FlightAware Transoceanic
Sun 05:05:00 AM 47.4454 155.0631 230° Southwest 385 443 33,000  Level FlightAware Transoceanic
Sun 05:06:00 AM 47.3741 154.9391 230° Southwest 385 443 33,000  Level FlightAware Transoceanic
Sun 05:07:00 AM 47.3028 154.8155 230° Southwest 385 443 33,000  Level FlightAware Transoceanic
Sun 05:08:00 AM 47.2313 154.6922 229° Southwest 385 443 33,000  Level FlightAware Transoceanic
Sun 05:09:00 AM 47.1596 154.5692 229° Southwest 385 443 33,000  Level FlightAware Transoceanic
Sun 05:10:00 AM 47.0879 154.4465 229° Southwest 385 443 33,000  Level FlightAware Transoceanic
Sun 05:11:00 AM 47.0160 154.3242 229° Southwest 385 443 33,000  Level FlightAware Transoceanic
Sun 05:12:00 AM 46.9439 154.2022 229° Southwest 385 443 33,000  Level FlightAware Transoceanic
Sun 05:13:00 AM 46.8718 154.0805 229° Southwest 385 443 33,000  Level FlightAware Transoceanic
Sun 05:14:00 AM 46.7995 153.9591 229° Southwest 385 443 33,000  Level FlightAware Transoceanic
Sun 05:15:00 AM 46.7271 153.8381 229° Southwest 385 443 33,000  Level FlightAware Transoceanic
Sun 05:16:00 AM 46.6545 153.7174 229° Southwest 385 443 33,000  Level FlightAware Transoceanic
Sun 05:17:00 AM 46.5819 153.5970 229° Southwest 385 443 33,000  Level FlightAware Transoceanic
Sun 05:18:00 AM 46.5091 153.4770 229° Southwest 385 443 33,000  Level FlightAware Transoceanic
Sun 05:19:00 AM 46.4362 153.3573 228° Southwest 385 443 33,000  Level FlightAware Transoceanic
Sun 05:20:00 AM 46.3631 153.2379 228° Southwest 385 443 33,000  Level FlightAware Transoceanic
Sun 05:21:00 AM 46.2900 153.1188 228° Southwest 385 443 33,000  Level FlightAware Transoceanic
Sun 05:22:00 AM 46.2090 152.9876 228° Southwest  Level FlightAware Approximate
Sun 05:23:00 AM 46.2012 152.9753 228° Southwest  Level FlightAware Approximate
Sun 05:24:00 AM 46.1195 152.8451 228° Southwest  Level FlightAware Approximate
Sun 05:25:00 AM 46.0385 152.7165 228° Southwest  Level FlightAware Approximate
Sun 05:26:00 AM 45.9572 152.5883 228° Southwest  Level FlightAware Approximate
Sun 05:27:00 AM 45.8759 152.4604 228° Southwest  Level FlightAware Approximate
Sun 05:28:00 AM 45.7943 152.3329 228° Southwest  Level FlightAware Approximate
Sun 05:29:00 AM 45.7127 152.2058 227° Southwest  Level FlightAware Approximate
Sun 05:30:00 AM 45.6309 152.0790 227° Southwest  Level FlightAware Approximate
Sun 05:31:00 AM 45.5490 151.9526 227° Southwest  Level FlightAware Approximate
Sun 05:32:00 AM 45.4669 151.8266 227° Southwest  Level FlightAware Approximate
Sun 05:33:00 AM 45.3847 151.7010 227° Southwest  Level FlightAware Approximate
Sun 05:34:00 AM 45.3023 151.5757 227° Southwest  Level FlightAware Approximate
Sun 05:35:00 AM 45.2199 151.4508 227° Southwest  Level FlightAware Approximate
Sun 05:36:00 AM 45.1372 151.3262 227° Southwest  Level FlightAware Approximate
Sun 05:37:00 AM 45.0545 151.2020 227° Southwest  Level FlightAware Approximate
Sun 05:38:00 AM 44.9716 151.0782 227° Southwest  Level FlightAware Approximate
Sun 05:39:00 AM 44.8886 150.9547 227° Southwest  Level FlightAware Approximate
Sun 05:40:00 AM 44.8054 150.8316 226° Southwest  Level FlightAware Approximate
Sun 05:41:00 AM 44.7221 150.7088 226° Southwest  Level FlightAware Approximate
Sun 05:42:00 AM 44.6387 150.5864 226° Southwest  Level FlightAware Approximate
Sun 05:43:00 AM 44.5551 150.4643 226° Southwest  Level FlightAware Approximate
Sun 05:44:00 AM 44.4715 150.3426 226° Southwest  Level FlightAware Approximate
Sun 05:45:00 AM 44.3877 150.2212 226° Southwest  Level FlightAware Approximate
Sun 05:46:00 AM 44.3037 150.1002 226° Southwest  Level FlightAware Approximate
Sun 05:47:00 AM 44.2197 149.9796 226° Southwest  Level FlightAware Approximate
Sun 05:48:00 AM 44.1355 149.8592 226° Southwest  Level FlightAware Approximate
Sun 05:49:00 AM 44.0512 149.7392 226° Southwest  Level FlightAware Approximate
Sun 05:50:00 AM 43.9667 149.6196 226° Southwest  Level FlightAware Approximate
Sun 05:51:00 AM 43.8821 149.5003 225° Southwest  Level FlightAware Approximate
Sun 05:52:00 AM 43.7975 149.3813 225° Southwest  Level FlightAware Approximate
Sun 05:53:00 AM 43.7126 149.2627 225° Southwest  Level FlightAware Approximate
Sun 05:54:00 AM 43.6277 149.1444 225° Southwest  Level FlightAware Approximate
Sun 05:55:00 AM 43.5426 149.0265 225° Southwest  Level FlightAware Approximate
Sun 05:56:00 AM 43.4575 148.9088 225° Southwest  Level FlightAware Approximate
Sun 05:57:00 AM 43.3722 148.7915 225° Southwest  Level FlightAware Approximate
Sun 05:58:00 AM 43.2867 148.6746 225° Southwest  Level FlightAware Approximate
Sun 05:59:00 AM 43.2012 148.5579 225° Southwest  Level FlightAware Approximate
Sun 06:00:00 AM 43.1156 148.4416 225° Southwest  Level FlightAware Approximate
Sun 06:01:00 AM 43.0298 148.3257 225° Southwest  Level FlightAware Approximate
Sun 06:02:00 AM 42.9439 148.2100 225° Southwest  Level FlightAware Approximate
Sun 06:03:00 AM 42.8579 148.0947 225° Southwest  Level FlightAware Approximate
Sun 06:04:00 AM 42.7718 147.9796 224° Southwest  Level FlightAware Approximate
Sun 06:05:00 AM 42.6855 147.8649 224° Southwest  Level FlightAware Approximate
Sun 06:06:00 AM 42.5992 147.7505 224° Southwest  Level FlightAware Approximate
Sun 06:07:00 AM 42.5127 147.6365 224° Southwest  Level FlightAware Approximate
Sun 06:08:00 AM 42.4261 147.5227 224° Southwest  Level FlightAware Approximate
Sun 06:09:00 AM 42.3399 147.4087 225° Southwest  Level FlightAware Approximate
Sun 06:10:00 AM 42.2540 147.2944 225° Southwest  Level FlightAware Approximate
Sun 06:11:00 AM 42.1679 147.1803 225° Southwest  Level FlightAware Approximate
Sun 06:12:00 AM 42.0818 147.0666 224° Southwest  Level FlightAware Approximate
Sun 06:13:00 AM 41.9957 146.9534 224° Southwest  Level FlightAware Approximate
Sun 06:14:00 AM 41.9094 146.8406 224° Southwest  Level FlightAware Approximate
Sun 06:15:00 AM 41.8223 146.7289 224° Southwest  Level FlightAware Approximate
Sun 06:16:00 AM 41.7352 146.6176 224° Southwest  Level FlightAware Approximate
Sun 06:17:00 AM 41.6480 146.5065 224° Southwest  Level FlightAware Approximate
Sun 06:18:00 AM 41.5607 146.3957 224° Southwest  Level FlightAware Approximate
Sun 06:19:00 AM 41.4732 146.2852 223° Southwest  Level FlightAware Approximate
Sun 06:20:00 AM 41.3857 146.1751 223° Southwest  Level FlightAware Approximate
Sun 06:21:00 AM 41.2980 146.0652 223° Southwest  Level FlightAware Approximate
Sun 06:22:00 AM 41.2103 145.9556 223° Southwest  Level FlightAware Approximate
Sun 06:23:00 AM 41.1225 145.8463 223° Southwest  Level FlightAware Approximate
Sun 06:24:00 AM 41.0345 145.7374 223° Southwest  Level FlightAware Approximate
Sun 06:25:00 AM 40.9464 145.6287 223° Southwest  Level FlightAware Approximate
Sun 06:26:00 AM 40.8583 145.5202 223° Southwest  Level FlightAware Approximate
Sun 06:27:00 AM 40.7700 145.4121 223° Southwest  Level FlightAware Approximate
Sun 06:28:00 AM 40.6816 145.3043 223° Southwest  Level FlightAware Approximate
Sun 06:29:00 AM 40.5932 145.1967 223° Southwest  Level FlightAware Approximate
Sun 06:30:00 AM 40.5046 145.0895 223° Southwest  Level FlightAware Approximate
Sun 06:31:00 AM 40.4160 144.9825 223° Southwest  Level FlightAware Approximate
Sun 06:32:00 AM 40.3273 144.8757 223° Southwest  Level FlightAware Approximate
Sun 06:33:00 AM 40.2385 144.7693 222° Southwest  Level FlightAware Approximate
Sun 06:34:00 AM 40.1496 144.6630 222° Southwest  Level FlightAware Approximate
Sun 06:35:00 AM 40.0606 144.5571 222° Southwest  Level FlightAware Approximate
Sun 06:36:00 AM 39.9715 144.4514 222° Southwest  Level FlightAware Approximate
Sun 06:37:00 AM 39.8823 144.3461 222° Southwest  Level FlightAware Approximate
Sun 06:38:00 AM 39.7930 144.2410 222° Southwest  Level FlightAware Approximate
Sun 06:39:00 AM 39.7036 144.1361 222° Southwest  Level FlightAware Approximate
Sun 06:40:00 AM 39.6141 144.0315 222° Southwest  Level FlightAware Approximate
Sun 06:41:00 AM 39.5246 143.9272 222° Southwest  Level FlightAware Approximate
Sun 06:42:00 AM 39.4349 143.8232 222° Southwest  Level FlightAware Approximate
Sun 06:43:00 AM 39.3451 143.7195 222° Southwest  Level FlightAware Approximate
Sun 06:44:00 AM 39.2553 143.6160 222° Southwest  Level FlightAware Approximate
Sun 06:45:00 AM 39.1652 143.5130 221° Southwest  Level FlightAware Approximate
Sun 06:46:00 AM 39.0744 143.4112 221° Southwest  Level FlightAware Approximate
Sun 06:47:00 AM 38.9835 143.3096 221° Southwest  Level FlightAware Approximate
Sun 06:48:00 AM 38.8930 143.2076 225° Southwest  Level FlightAware Approximate
Sun 06:49:00 AM 38.8084 143.0977 225° Southwest  Level FlightAware Approximate
Sun 06:50:00 AM 38.7237 142.9880 225° Southwest  Level FlightAware Approximate
Sun 06:51:00 AM 38.6389 142.8786 225° Southwest  Level FlightAware Approximate
Sun 06:52:00 AM 38.5540 142.7695 225° Southwest  Level FlightAware Approximate
Sun 06:53:00 AM 38.4689 142.6606 225° Southwest  Level FlightAware Approximate
Sun 06:54:00 AM 38.3838 142.5520 225° Southwest  Level FlightAware Approximate
Sun 06:55:00 AM 38.2993 142.4428 227° Southwest  Level FlightAware Approximate
Sun 06:56:00 AM 38.2175 142.3303 227° Southwest  Level FlightAware Approximate
Sun 06:57:00 AM 38.1356 142.2181 227° Southwest  Level FlightAware Approximate
Sun 06:58:00 AM 38.0536 142.1062 227° Southwest  Level FlightAware Approximate
Sun 06:59:00 AM 37.9715 141.9945 227° Southwest  Level FlightAware Approximate
Sun 07:00:00 AM 37.8893 141.8831 227° Southwest  Level FlightAware Approximate
Sun 07:01:00 AM 37.8069 141.7719 227° Southwest  Level FlightAware Approximate
Sun 07:02:00 AM 37.7245 141.6609 227° Southwest  Level FlightAware Approximate
Sun 07:03:00 AM 37.6420 141.5502 227° Southwest  Level FlightAware Approximate
Sun 07:04:00 AM 37.5593 141.4398 227° Southwest  Level FlightAware Approximate
Sun 07:05:00 AM 37.4766 141.3296 227° Southwest  Level FlightAware Approximate
Sun 07:06:00 AM 37.3947 141.2186 229° Southwest  Level FlightAware Approximate
Sun 07:07:00 AM 37.3152 141.1049 229° Southwest  Level FlightAware Approximate
Sun 07:08:00 AM 37.2332 140.9942 227° Southwest  Level FlightAware Approximate
Sun 07:09:00 AM 37.1507 140.8842 227° Southwest  Level FlightAware Approximate
Sun 07:10:00 AM 37.0682 140.7743 227° Southwest  Level FlightAware Approximate
Sun 07:11:00 AM 36.9837 140.6670 225° Southwest  Level FlightAware Approximate
Sun 07:12:00 AM 36.8991 140.5598 227° Southwest  Level FlightAware Approximate
Sun 07:13:00 AM 36.8168 140.4501 227° Southwest  Level FlightAware Approximate
Sun 07:14:00 AM 36.7366 140.3380 228° Southwest  Level FlightAware Approximate
Sun 07:15:00 AM 36.6239 140.2952 202° Southwest  Level FlightAware Approximate
Sun 07:16:00 AM 36.5122 140.2393 202° Southwest  Level FlightAware Approximate
Sun 07:17:00 AM 36.4005 140.1835 202° Southwest  Level FlightAware Approximate
Sun 07:18:00 AM 36.2889 140.1277 202° Southwest  Level FlightAware Approximate
Sun 07:19:00 AM 36.1772 140.0719 202° Southwest  Level FlightAware Approximate
Sun 07:20:00 AM 36.0657 140.0161 202° Southwest  Level FlightAware Approximate
Sun 07:21:00 AM 35.9541 139.9603 202° Southwest  Level FlightAware Approximate
Sun 07:22:00 AM 35.8405 139.9119 202° Southwest  Level FlightAware Approximate
Sun 07:23:00 AM 35.7281 139.8594 195° South  Level FlightAware Approximate
Sun 07:24:00 AM 35.6136 139.8143 211° Southwest  Level FlightAware Approximate
Sun 07:25:00 AM 35.5500 139.7667 211° Southwest  Level FlightAware Approximate
Sun 07:26:00 AM 35.5523 139.7797 211° Southwest  Level Estimated
Sun 07:27:00 AM 35.5523 139.7797 211° Southwest  Level Estimated
Sun 07:28:00 AM 35.5523 139.7797 211° Southwest  Level Estimated
Sun 07:29:00 AM 35.5523 139.7797 211° Southwest  Level Estimated
Sun 07:30:00 AM 35.5523 139.7797 211° Southwest  Level Estimated
Sun 07:31:00 AM 35.5523 139.7797 211° Southwest  Level Estimated
Sun 07:32:00 AM 35.5523 139.7797 211° Southwest  Level Estimated
Sun 07:33:00 AM 35.5523 139.7797 211° Southwest  Level Estimated
Sun 07:34:00 AM 35.5523 139.7797 211° Southwest  Level Estimated
Sun 07:35:00 AM 35.5523 139.7797 211° Southwest  Level Estimated
Sun 07:36:00 AM 35.5523 139.7797 211° Southwest  Level Estimated
Sun 07:37:00 AM 35.5523 139.7797 211° Southwest  Level Estimated
Sun 07:38:00 AM 35.5523 139.7797 211° Southwest  Level Estimated
Sun 07:39:00 AM 35.5523 139.7797 211° Southwest  Level Estimated
Sun 07:40:00 AM 35.5523 139.7797 211° Southwest  Level Estimated
Sun 07:41:00 AM 35.5523 139.7797 211° Southwest  Level Estimated
Sun 07:42:00 AM 35.5523 139.7797 211° Southwest  Level Estimated
Sun 07:43:00 AM 35.5523 139.7797 211° Southwest  Level Estimated
Sun 07:44:00 AM 35.5523 139.7797 211° Southwest  Level Estimated
Sun 07:45:00 AM 35.5523 139.7797 211° Southwest  Level Estimated
Sun 07:46:00 AM 35.5523 139.7797 211° Southwest  Level Estimated
Sun 07:47:00 AM 35.5523 139.7797 211° Southwest  Level Estimated
Sun 07:48:00 AM 35.5523 139.7797 211° Southwest  Level Estimated
Sun 07:49:00 AM 35.5523 139.7797 211° Southwest  Level Estimated
Sun 07:50:00 AM 35.5523 139.7797 211° Southwest  Level Estimated
Sun 07:51:00 AM 35.5523 139.7797 211° Southwest  Level Estimated

Login

Don't have an account? Register now (free) for customized features, flight alerts, and more!